createdAt,value
2023-08-02T00:00:52.544Z,16.10
2023-08-02T00:03:20.033Z,16.12
2023-08-02T00:05:47.533Z,16.13
2023-08-02T00:08:15.085Z,16.14
2023-08-02T00:10:42.566Z,16.13
2023-08-02T00:13:10.129Z,16.14
2023-08-02T00:15:37.678Z,16.12
2023-08-02T00:18:05.696Z,16.09
2023-08-02T00:20:33.266Z,16.08
2023-08-02T00:23:00.874Z,16.07
2023-08-02T00:25:28.397Z,16.07
2023-08-02T00:27:55.977Z,16.06
2023-08-02T00:30:23.520Z,16.04
2023-08-02T00:32:51.004Z,16.01
2023-08-02T00:35:18.503Z,15.98
2023-08-02T00:37:46.045Z,15.97
2023-08-02T00:40:13.905Z,15.96
2023-08-02T00:42:41.398Z,15.97
2023-08-02T00:45:08.934Z,16.01
2023-08-02T00:47:36.556Z,16.03
2023-08-02T00:50:04.199Z,16.07
2023-08-02T00:52:31.750Z,16.08
2023-08-02T00:54:59.232Z,16.08
2023-08-02T00:57:26.782Z,16.07
2023-08-02T00:59:54.379Z,16.05
2023-08-02T01:02:22.422Z,16.01
2023-08-02T01:04:50.041Z,15.96
2023-08-02T01:07:17.667Z,15.94
2023-08-02T01:09:45.207Z,15.91
2023-08-02T01:12:12.812Z,15.87
2023-08-02T01:14:50.818Z,15.81
2023-08-02T01:17:22.310Z,15.77
2023-08-02T01:19:49.904Z,15.74
2023-08-02T01:22:17.444Z,15.69
2023-08-02T01:24:44.982Z,15.66
2023-08-02T01:27:12.553Z,15.63
2023-08-02T01:29:40.129Z,15.60
2023-08-02T01:32:07.669Z,15.56
2023-08-02T01:34:35.313Z,15.53
2023-08-02T01:37:02.884Z,15.52
2023-08-02T01:39:30.449Z,15.50
2023-08-02T01:41:58.125Z,15.49
2023-08-02T01:44:25.964Z,15.48
2023-08-02T01:46:53.518Z,15.47
2023-08-02T01:49:22.868Z,15.44
2023-08-02T01:51:50.425Z,15.42
2023-08-02T01:54:17.983Z,15.39
2023-08-02T01:56:45.751Z,15.37
2023-08-02T01:59:13.511Z,15.35
2023-08-02T02:01:41.233Z,15.36
2023-08-02T02:04:08.928Z,15.36
2023-08-02T02:06:36.547Z,15.34
2023-08-02T02:09:04.282Z,15.34
2023-08-02T02:11:31.922Z,15.33
2023-08-02T02:13:59.545Z,15.33
2023-08-02T02:16:27.110Z,15.33
2023-08-02T02:18:55.097Z,15.32
2023-08-02T02:21:22.708Z,15.33
2023-08-02T02:23:50.348Z,15.34
2023-08-02T02:26:17.918Z,15.36
2023-08-02T02:28:45.938Z,15.38
2023-08-02T02:31:13.499Z,15.37
2023-08-02T02:33:41.208Z,15.37
2023-08-02T02:36:08.747Z,15.37
2023-08-02T02:38:36.308Z,15.36
2023-08-02T02:41:03.978Z,15.36
2023-08-02T02:43:31.570Z,15.37
2023-08-02T02:45:59.135Z,15.40
2023-08-02T02:48:26.753Z,15.43
2023-08-02T02:50:54.713Z,15.47
2023-08-02T02:53:24.238Z,15.52
2023-08-02T02:55:52.911Z,15.58
2023-08-02T02:58:20.452Z,15.64
2023-08-02T03:00:48.069Z,15.70
2023-08-02T03:03:15.732Z,15.74
2023-08-02T03:05:43.376Z,15.77
2023-08-02T03:08:10.999Z,15.81
2023-08-02T03:10:38.610Z,15.82
2023-08-02T03:13:06.534Z,15.82
2023-08-02T03:15:34.113Z,15.85
2023-08-02T03:18:01.753Z,15.85
2023-08-02T03:20:30.092Z,15.88
2023-08-02T03:22:57.700Z,15.91
2023-08-02T03:25:25.275Z,15.95
2023-08-02T03:27:52.842Z,15.97
2023-08-02T03:30:20.422Z,15.96
2023-08-02T03:32:48.056Z,15.98
2023-08-02T03:35:15.697Z,16.00
2023-08-02T03:37:43.296Z,16.00
2023-08-02T03:40:10.926Z,16.02
2023-08-02T03:42:38.495Z,16.06
2023-08-02T03:45:06.073Z,16.09
2023-08-02T03:47:33.698Z,16.12
2023-08-02T03:50:01.311Z,16.14
2023-08-02T03:52:28.886Z,16.17
2023-08-02T03:54:56.870Z,16.22
2023-08-02T03:57:24.488Z,16.25
2023-08-02T03:59:52.075Z,16.28
2023-08-02T04:02:19.748Z,16.28
2023-08-02T04:04:47.382Z,16.28
2023-08-02T04:07:14.938Z,16.30
2023-08-02T04:09:42.562Z,16.32
2023-08-02T04:12:10.123Z,16.36
2023-08-02T04:14:37.663Z,16.37
2023-08-02T04:17:05.713Z,16.39
2023-08-02T04:19:33.317Z,16.40
2023-08-02T04:22:01.813Z,16.43
2023-08-02T04:24:29.426Z,16.44
2023-08-02T04:26:56.998Z,16.43
2023-08-02T04:29:24.603Z,16.44
2023-08-02T04:31:52.367Z,16.45
2023-08-02T04:34:20.020Z,16.45
2023-08-02T04:36:47.620Z,16.46
2023-08-02T04:39:16.562Z,16.46
2023-08-02T04:41:44.240Z,16.45
2023-08-02T04:44:11.857Z,16.45
2023-08-02T04:46:39.614Z,16.45
2023-08-02T04:49:07.194Z,16.45
2023-08-02T04:51:37.770Z,16.45
2023-08-02T04:54:05.789Z,16.47
2023-08-02T04:56:33.417Z,16.48
2023-08-02T04:59:01.340Z,16.50
2023-08-02T05:01:29.262Z,16.51
2023-08-02T05:03:56.965Z,16.52
2023-08-02T05:06:24.625Z,16.51
2023-08-02T05:08:52.254Z,16.52
2023-08-02T05:11:19.858Z,16.54
2023-08-02T05:13:47.426Z,16.56
2023-08-02T05:16:15.418Z,16.59
2023-08-02T05:18:43.175Z,16.62
2023-08-02T05:21:10.742Z,16.64
2023-08-02T05:23:38.764Z,16.68
2023-08-02T05:26:06.343Z,16.69
2023-08-02T05:28:33.942Z,16.72
2023-08-02T05:31:01.592Z,16.76
2023-08-02T05:33:29.237Z,16.79
2023-08-02T05:35:57.491Z,16.82
2023-08-02T05:38:25.148Z,16.86
2023-08-02T05:40:52.740Z,16.92
2023-08-02T05:43:20.310Z,16.93
2023-08-02T05:45:48.355Z,16.96
2023-08-02T05:48:15.938Z,16.98
2023-08-02T05:50:43.605Z,16.98
2023-08-02T05:53:11.276Z,17.00
2023-08-02T05:55:38.948Z,17.01
2023-08-02T05:58:06.553Z,17.04
2023-08-02T06:00:34.720Z,17.08
2023-08-02T06:03:02.547Z,17.11
2023-08-02T06:05:30.301Z,17.12
2023-08-02T06:07:58.083Z,17.15
2023-08-02T06:10:25.646Z,17.17
2023-08-02T06:12:53.345Z,17.20
2023-08-02T06:15:21.056Z,17.22
2023-08-02T06:17:48.781Z,17.20
2023-08-02T06:20:16.481Z,17.15
2023-08-02T06:22:44.217Z,17.11
2023-08-02T06:25:11.882Z,17.10
2023-08-02T06:27:39.514Z,17.11
2023-08-02T06:30:07.720Z,17.11
2023-08-02T06:32:35.415Z,17.11
2023-08-02T06:35:03.048Z,17.09
2023-08-02T06:37:31.524Z,17.06
2023-08-02T06:39:59.142Z,17.03
2023-08-02T06:42:26.809Z,16.99
2023-08-02T06:44:54.469Z,16.92
2023-08-02T06:47:22.113Z,16.88
2023-08-02T06:49:50.025Z,16.86
2023-08-02T06:52:18.164Z,16.87
2023-08-02T06:54:45.802Z,16.89
2023-08-02T06:57:13.400Z,16.91
2023-08-02T06:59:41.410Z,16.96
2023-08-02T07:02:10.527Z,17.02
2023-08-02T07:04:38.181Z,17.05
2023-08-02T07:07:05.997Z,17.10
2023-08-02T07:09:33.980Z,17.15
2023-08-02T07:12:01.633Z,17.17
2023-08-02T07:14:31.253Z,17.21
2023-08-02T07:16:59.000Z,17.25
2023-08-02T07:19:26.659Z,17.30
2023-08-02T07:21:54.411Z,17.34
2023-08-02T07:24:22.052Z,17.39
2023-08-02T07:26:50.493Z,17.42
2023-08-02T07:29:18.230Z,17.51
2023-08-02T07:31:46.147Z,17.60
2023-08-02T07:34:13.961Z,17.70
2023-08-02T07:36:41.887Z,17.79
2023-08-02T07:39:10.205Z,17.88
2023-08-02T07:41:38.041Z,17.93
2023-08-02T07:44:05.896Z,17.91
2023-08-02T07:46:34.737Z,17.88
2023-08-02T07:49:04.164Z,17.89
2023-08-02T07:51:32.740Z,17.89
2023-08-02T07:54:00.498Z,17.89
2023-08-02T07:56:28.457Z,17.89
2023-08-02T07:58:59.315Z,17.89
2023-08-02T08:01:28.099Z,17.89
2023-08-02T08:03:55.820Z,17.94
2023-08-02T08:06:25.291Z,18.02
2023-08-02T08:08:53.140Z,18.12
2023-08-02T08:11:23.372Z,18.21
2023-08-02T08:13:53.746Z,18.29
2023-08-02T08:16:21.551Z,18.40
2023-08-02T08:18:51.827Z,18.51
2023-08-02T08:21:19.810Z,18.60
2023-08-02T08:23:47.463Z,18.66
2023-08-02T08:26:16.124Z,18.70
2023-08-02T08:28:44.105Z,18.79
2023-08-02T08:31:11.878Z,18.92
2023-08-02T08:33:39.619Z,18.99
2023-08-02T08:36:07.455Z,19.11
2023-08-02T08:38:35.427Z,19.26
2023-08-02T08:41:03.583Z,19.35
2023-08-02T08:43:31.332Z,19.40
2023-08-02T08:45:59.170Z,19.49
2023-08-02T08:48:27.025Z,19.52
2023-08-02T08:50:55.024Z,19.50
2023-08-02T08:53:23.659Z,19.43
2023-08-02T08:55:52.366Z,19.36
2023-08-02T08:58:20.963Z,19.31
2023-08-02T09:00:48.668Z,19.26
2023-08-02T09:03:17.080Z,19.24
2023-08-02T09:05:45.154Z,19.24
2023-08-02T09:08:12.859Z,19.20
2023-08-02T09:10:40.753Z,19.15
2023-08-02T09:13:08.825Z,19.12
2023-08-02T09:15:36.808Z,19.11
2023-08-02T09:18:05.125Z,19.10
2023-08-02T09:20:33.070Z,19.22
2023-08-02T09:23:02.305Z,19.35
2023-08-02T09:25:30.537Z,19.43
2023-08-02T09:28:00.025Z,19.57
2023-08-02T09:30:28.701Z,19.77
2023-08-02T09:32:56.632Z,19.95
2023-08-02T09:35:24.620Z,20.10
2023-08-02T09:37:52.556Z,20.19
2023-08-02T09:40:20.347Z,20.40
2023-08-02T09:42:48.840Z,20.67
2023-08-02T09:45:16.753Z,20.86
2023-08-02T09:47:44.990Z,20.99
2023-08-02T09:50:12.989Z,21.15
2023-08-02T09:52:40.865Z,21.36
2023-08-02T09:55:08.800Z,21.71
2023-08-02T09:57:36.700Z,21.99
2023-08-02T10:00:05.853Z,22.24
2023-08-02T10:02:33.957Z,22.50
2023-08-02T10:05:02.233Z,22.82
2023-08-02T10:07:30.110Z,22.95
2023-08-02T10:09:57.998Z,23.04
2023-08-02T10:12:26.763Z,23.52
2023-08-02T10:14:54.629Z,24.00
2023-08-02T10:17:22.601Z,24.13
2023-08-02T10:19:50.982Z,23.90
2023-08-02T10:22:18.722Z,23.52
2023-08-02T10:24:47.262Z,23.22
2023-08-02T10:27:15.217Z,23.18
2023-08-02T10:29:43.697Z,23.08
2023-08-02T10:32:11.620Z,23.07
2023-08-02T10:34:39.692Z,23.02
2023-08-02T10:37:07.540Z,22.95
2023-08-02T10:39:35.553Z,23.07
2023-08-02T10:42:03.585Z,23.44
2023-08-02T10:44:32.515Z,23.71
2023-08-02T10:47:00.490Z,23.64
2023-08-02T10:49:28.447Z,23.56
2023-08-02T10:51:58.237Z,23.54
2023-08-02T10:54:27.292Z,23.53
2023-08-02T10:56:56.418Z,23.62
2023-08-02T10:59:24.254Z,23.62
2023-08-02T11:01:52.092Z,23.39
2023-08-02T11:04:20.077Z,23.01
2023-08-02T11:06:48.049Z,22.63
2023-08-02T11:09:16.003Z,22.24
2023-08-02T11:11:45.301Z,21.49
2023-08-02T11:14:15.468Z,20.93
2023-08-02T11:19:21.825Z,20.36
2023-08-02T11:21:49.694Z,20.36
2023-08-02T11:24:17.677Z,20.66
2023-08-02T11:29:16.449Z,21.32
2023-08-02T11:31:47.619Z,21.69
2023-08-02T11:34:20.627Z,22.22
2023-08-02T11:36:49.721Z,23.07
2023-08-02T11:39:17.996Z,23.58
2023-08-02T11:41:45.979Z,24.39
2023-08-02T11:44:13.791Z,25.36
2023-08-02T11:46:42.163Z,26.25
2023-08-02T11:49:10.375Z,27.00
2023-08-02T11:51:38.196Z,27.50
2023-08-02T11:54:06.429Z,27.81
2023-08-02T11:56:34.297Z,28.26
2023-08-02T11:59:02.184Z,28.56
2023-08-02T12:01:30.040Z,28.80
2023-08-02T12:03:58.175Z,28.95
2023-08-02T12:06:26.590Z,28.90
2023-08-02T12:08:54.543Z,29.11
2023-08-02T12:11:22.556Z,28.92
2023-08-02T12:13:50.483Z,28.84
2023-08-02T12:16:18.753Z,28.71
2023-08-02T12:18:46.862Z,27.69
2023-08-02T12:21:14.755Z,27.11
2023-08-02T12:23:42.703Z,26.86
2023-08-02T12:26:10.591Z,26.28
2023-08-02T12:28:38.361Z,25.87
2023-08-02T12:31:06.884Z,26.50
2023-08-02T12:33:35.151Z,26.76
2023-08-02T12:36:03.092Z,26.55
2023-08-02T12:38:31.413Z,26.67
2023-08-02T12:40:59.736Z,27.47
2023-08-02T12:43:28.183Z,28.19
2023-08-02T12:45:56.138Z,28.46
2023-08-02T12:48:24.168Z,28.47
2023-08-02T12:50:51.924Z,28.60
2023-08-02T12:53:19.724Z,28.37
2023-08-02T12:55:48.907Z,27.83
2023-08-02T12:58:17.048Z,27.97
2023-08-02T13:00:46.242Z,27.61
2023-08-02T13:03:14.173Z,27.16
2023-08-02T13:05:42.212Z,26.50
2023-08-02T13:08:11.229Z,25.88
2023-08-02T13:10:39.198Z,25.37
2023-08-02T13:13:07.030Z,24.87
2023-08-02T13:15:34.878Z,24.44
2023-08-02T13:18:02.770Z,24.11
2023-08-02T13:20:30.793Z,23.80
2023-08-02T13:22:59.082Z,23.28
2023-08-02T13:25:27.975Z,22.77
2023-08-02T13:27:55.884Z,22.34
2023-08-02T13:30:23.905Z,22.10
2023-08-02T13:32:51.888Z,21.91
2023-08-02T13:35:21.398Z,21.76
2023-08-02T13:37:49.330Z,21.61
2023-08-02T13:40:17.274Z,21.51
2023-08-02T13:42:45.105Z,21.43
2023-08-02T13:45:14.982Z,21.29
2023-08-02T13:47:43.240Z,21.10
2023-08-02T13:50:11.204Z,21.10
2023-08-02T13:52:39.107Z,20.96
2023-08-02T13:55:07.174Z,20.83
2023-08-02T13:57:34.999Z,20.73
2023-08-02T14:00:04.010Z,20.68
2023-08-02T14:02:31.946Z,20.76
2023-08-02T14:04:59.851Z,21.05
2023-08-02T14:07:27.572Z,21.29
2023-08-02T14:09:55.425Z,21.38
2023-08-02T14:12:23.270Z,21.40
2023-08-02T14:14:51.004Z,21.34
2023-08-02T14:17:19.184Z,21.37
2023-08-02T14:19:47.011Z,21.46
2023-08-02T14:22:14.819Z,21.55
2023-08-02T14:24:43.167Z,21.63
2023-08-02T14:27:11.639Z,21.73
2023-08-02T14:29:39.893Z,22.00
2023-08-02T14:32:07.802Z,22.44
2023-08-02T14:34:35.574Z,23.16
2023-08-02T14:37:03.597Z,23.61
2023-08-02T14:39:31.389Z,23.64
2023-08-02T14:42:02.049Z,23.62
2023-08-02T14:44:30.006Z,24.08
2023-08-02T14:46:57.921Z,24.49
2023-08-02T14:49:25.857Z,24.87
2023-08-02T14:51:54.006Z,25.27
2023-08-02T14:54:22.022Z,25.77
2023-08-02T14:56:49.775Z,26.43
2023-08-02T14:59:17.545Z,26.92
2023-08-02T15:01:45.759Z,27.39
2023-08-02T15:04:13.560Z,27.76
2023-08-02T15:06:41.724Z,28.01
2023-08-02T15:09:09.730Z,28.28
2023-08-02T15:11:37.691Z,28.81
2023-08-02T15:14:05.862Z,29.53
2023-08-02T15:16:33.702Z,30.42
2023-08-02T15:19:01.561Z,31.03
2023-08-02T15:21:29.399Z,31.53
2023-08-02T15:23:57.391Z,31.69
2023-08-02T15:26:26.945Z,30.67
2023-08-02T15:28:54.708Z,29.18
2023-08-02T15:31:22.542Z,27.91
2023-08-02T15:33:52.533Z,27.04
2023-08-02T15:36:20.273Z,26.30
2023-08-02T15:38:48.414Z,25.78
2023-08-02T15:41:16.215Z,25.67
2023-08-02T15:43:44.161Z,25.51
2023-08-02T15:46:12.982Z,26.46
2023-08-02T15:48:42.847Z,27.27
2023-08-02T15:51:10.614Z,28.49
2023-08-02T15:53:38.427Z,28.58
2023-08-02T15:56:07.404Z,28.76
2023-08-02T15:58:35.558Z,29.37
2023-08-02T16:01:03.462Z,29.70
2023-08-02T16:03:32.142Z,29.96
2023-08-02T16:06:01.194Z,30.38
2023-08-02T16:08:29.364Z,30.85
2023-08-02T16:10:57.119Z,31.25
2023-08-02T16:13:24.768Z,30.79
2023-08-02T16:15:52.618Z,29.64
2023-08-02T16:18:20.702Z,28.37
2023-08-02T16:20:50.386Z,27.60
2023-08-02T16:31:49.884Z,25.76
2023-08-02T16:34:17.882Z,25.44
2023-08-02T16:36:45.682Z,24.90
2023-08-02T16:39:14.655Z,25.22
2023-08-02T16:41:42.915Z,26.14
2023-08-02T16:44:10.944Z,26.19
2023-08-02T16:46:38.780Z,25.57
2023-08-02T16:49:07.676Z,24.88
2023-08-02T16:51:35.567Z,24.30
2023-08-02T16:54:03.441Z,23.85
2023-08-02T16:56:31.749Z,23.46
2023-08-02T16:58:59.687Z,23.16
2023-08-02T17:01:27.852Z,22.84
2023-08-02T17:03:55.856Z,22.54
2023-08-02T17:06:23.972Z,22.32
2023-08-02T17:08:52.107Z,22.15
2023-08-02T17:11:21.278Z,21.99
2023-08-02T17:13:49.117Z,21.90
2023-08-02T17:16:17.087Z,21.84
2023-08-02T17:18:44.936Z,21.73
2023-08-02T17:21:13.071Z,21.67
2023-08-02T17:23:41.143Z,21.63
2023-08-02T17:26:09.197Z,21.60
2023-08-02T17:28:37.035Z,21.59
2023-08-02T17:31:05.034Z,21.58
2023-08-02T17:33:32.924Z,21.59
2023-08-02T17:36:00.712Z,21.61
2023-08-02T17:38:28.674Z,21.68
2023-08-02T17:40:59.150Z,21.74
2023-08-02T17:43:27.633Z,21.76
2023-08-02T17:45:55.647Z,21.77
2023-08-02T17:48:23.408Z,21.74
2023-08-02T17:50:51.207Z,21.72
2023-08-02T17:53:19.032Z,21.66
2023-08-02T17:55:46.823Z,21.59
2023-08-02T17:58:14.606Z,21.53
2023-08-02T18:00:42.760Z,21.46
2023-08-02T18:03:10.578Z,21.41
2023-08-02T18:05:39.783Z,21.35
2023-08-02T18:08:07.901Z,21.16
2023-08-02T18:10:35.701Z,20.83
2023-08-02T18:13:05.509Z,20.52
2023-08-02T18:15:33.473Z,20.20
2023-08-02T18:18:01.432Z,19.84
2023-08-02T18:20:29.232Z,19.44
2023-08-02T18:22:57.360Z,19.05
2023-08-02T18:25:25.117Z,18.72
2023-08-02T18:27:53.507Z,18.45
2023-08-02T18:30:21.387Z,18.21
2023-08-02T18:32:49.276Z,18.04
2023-08-02T18:35:17.276Z,17.90
2023-08-02T18:37:45.362Z,17.79
2023-08-02T18:40:13.209Z,17.71
2023-08-02T18:42:40.958Z,17.66
2023-08-02T18:45:10.127Z,17.64
2023-08-02T18:47:37.976Z,17.62
2023-08-02T18:50:06.923Z,17.57
2023-08-02T18:52:34.869Z,17.52
2023-08-02T18:55:02.881Z,17.47
2023-08-02T18:57:30.709Z,17.43
2023-08-02T18:59:58.547Z,17.37
2023-08-02T19:02:26.468Z,17.31
2023-08-02T19:04:54.414Z,17.28
2023-08-02T19:07:23.729Z,17.26
2023-08-02T19:09:51.728Z,17.23
2023-08-02T19:12:21.456Z,17.21
2023-08-02T19:14:49.526Z,17.23
2023-08-02T19:17:17.407Z,17.24
2023-08-02T19:19:45.238Z,17.24
2023-08-02T19:22:13.207Z,17.24
2023-08-02T19:24:41.844Z,17.26
2023-08-02T19:27:09.750Z,17.23
2023-08-02T19:29:37.784Z,17.24
2023-08-02T19:32:07.268Z,17.23
2023-08-02T19:34:37.157Z,17.24
2023-08-02T19:37:04.781Z,17.23
2023-08-02T19:39:44.775Z,17.20
2023-08-02T19:42:14.375Z,17.17
2023-08-02T19:44:42.895Z,17.14
2023-08-02T19:47:10.502Z,17.12
2023-08-02T19:49:38.256Z,17.10
2023-08-02T19:52:05.823Z,17.08
2023-08-02T19:54:33.747Z,17.06
2023-08-02T19:57:03.219Z,17.06
2023-08-02T19:59:31.193Z,17.06
2023-08-02T20:01:58.740Z,17.07
2023-08-02T20:04:26.357Z,17.08
2023-08-02T20:06:53.945Z,17.09
2023-08-02T20:09:23.105Z,17.11
2023-08-02T20:11:50.728Z,17.13
2023-08-02T20:14:18.252Z,17.14
2023-08-02T20:16:46.173Z,17.17
2023-08-02T20:19:13.868Z,17.19
2023-08-02T20:21:41.677Z,17.23
2023-08-02T20:24:09.508Z,17.24
2023-08-02T20:26:37.313Z,17.26
2023-08-02T20:29:04.882Z,17.28
2023-08-02T20:31:37.439Z,17.34
2023-08-02T20:34:05.116Z,17.40
2023-08-02T20:36:32.726Z,17.46
2023-08-02T20:39:00.602Z,17.51
2023-08-02T20:41:28.318Z,17.53
2023-08-02T20:43:55.997Z,17.51
2023-08-02T20:46:23.604Z,17.49
2023-08-02T20:48:51.403Z,17.47
2023-08-02T20:51:18.983Z,17.48
2023-08-02T20:53:46.527Z,17.46
2023-08-02T20:56:14.139Z,17.45
2023-08-02T20:58:41.921Z,17.43
2023-08-02T21:01:09.900Z,17.43
2023-08-02T21:03:38.004Z,17.42
2023-08-02T21:06:05.660Z,17.36
2023-08-02T21:08:33.256Z,17.31
2023-08-02T21:11:00.916Z,17.28
2023-08-02T21:13:28.807Z,17.27
2023-08-02T21:15:56.379Z,17.27
2023-08-02T21:18:23.934Z,17.28
2023-08-02T21:20:51.781Z,17.30
2023-08-02T21:23:19.335Z,17.33
2023-08-02T21:25:46.961Z,17.36
2023-08-02T21:28:14.757Z,17.37
2023-08-02T21:30:42.520Z,17.37
2023-08-02T21:33:10.137Z,17.41
2023-08-02T21:35:37.708Z,17.43
2023-08-02T21:38:05.707Z,17.43
2023-08-02T21:40:33.306Z,17.43
2023-08-02T21:43:01.129Z,17.44
2023-08-02T21:45:28.706Z,17.49
2023-08-02T21:47:56.346Z,17.57
2023-08-02T21:50:24.546Z,17.63
2023-08-02T21:52:52.101Z,17.66
2023-08-02T21:55:19.773Z,17.71
2023-08-02T21:57:47.401Z,17.70
2023-08-02T22:00:15.213Z,17.56
2023-08-02T22:02:42.920Z,17.40
2023-08-02T22:05:10.824Z,17.28
2023-08-02T22:07:39.717Z,17.16
2023-08-02T22:10:07.370Z,17.04
2023-08-02T22:12:34.955Z,16.95
2023-08-02T22:15:02.615Z,16.87
2023-08-02T22:17:30.232Z,16.81
2023-08-02T22:19:57.841Z,16.75
2023-08-02T22:22:25.383Z,16.70
2023-08-02T22:24:52.966Z,16.65
2023-08-02T22:27:21.901Z,16.60
2023-08-02T22:29:59.165Z,16.55
2023-08-02T22:32:27.543Z,16.52
2023-08-02T22:34:55.125Z,16.50
2023-08-02T22:37:22.699Z,16.49
2023-08-02T22:39:50.264Z,16.50
2023-08-02T22:42:17.820Z,16.51
2023-08-02T22:44:45.351Z,16.54
2023-08-02T22:47:13.498Z,16.59
2023-08-02T22:52:12.136Z,16.69
2023-08-02T22:54:39.763Z,16.74
2023-08-02T22:57:07.868Z,16.84
2023-08-02T22:59:35.445Z,16.86
2023-08-02T23:02:05.915Z,16.74
2023-08-02T23:04:33.929Z,16.62
2023-08-02T23:07:01.681Z,16.55
2023-08-02T23:09:29.601Z,16.50
2023-08-02T23:11:58.303Z,16.48
2023-08-02T23:14:25.848Z,16.45
2023-08-02T23:16:53.443Z,16.41
2023-08-02T23:19:21.016Z,16.38
2023-08-02T23:21:48.885Z,16.36
2023-08-02T23:24:16.861Z,16.32
2023-08-02T23:26:44.488Z,16.30
2023-08-02T23:29:12.033Z,16.29
2023-08-02T23:31:39.759Z,16.27
2023-08-02T23:34:07.397Z,16.25
2023-08-02T23:36:34.968Z,16.24
2023-08-02T23:39:02.576Z,16.24
2023-08-02T23:41:30.128Z,16.24
2023-08-02T23:43:57.712Z,16.26
2023-08-02T23:46:25.440Z,16.31
2023-08-02T23:48:52.988Z,16.38
2023-08-02T23:51:20.577Z,16.48
2023-08-02T23:53:48.446Z,16.59
2023-08-02T23:56:16.014Z,16.68
2023-08-02T23:58:43.613Z,16.78
